sensor_id;sensor_type;location;lat;lon;timestamp;P1;durP1;ratioP1;P2;durP2;ratioP2
9322;SDS011;4700;48.822;9.270;2023-04-15T00:00:37;111.60;;;69.30;;
9322;SDS011;4700;48.822;9.270;2023-04-15T00:03:31;112.40;;;67.73;;
9322;SDS011;4700;48.822;9.270;2023-04-15T00:06:23;110.93;;;68.57;;
9322;SDS011;4700;48.822;9.270;2023-04-15T00:09:37;117.47;;;71.00;;
9322;SDS011;4700;48.822;9.270;2023-04-15T00:12:32;105.23;;;66.00;;
9322;SDS011;4700;48.822;9.270;2023-04-15T00:15:21;107.73;;;68.80;;
9322;SDS011;4700;48.822;9.270;2023-04-15T00:18:21;101.47;;;66.17;;
9322;SDS011;4700;48.822;9.270;2023-04-15T00:21:09;93.43;;;62.93;;
9322;SDS011;4700;48.822;9.270;2023-04-15T00:23:56;105.47;;;65.63;;
9322;SDS011;4700;48.822;9.270;2023-04-15T00:26:46;105.13;;;65.80;;
9322;SDS011;4700;48.822;9.270;2023-04-15T00:29:39;97.33;;;64.03;;
9322;SDS011;4700;48.822;9.270;2023-04-15T00:32:31;99.03;;;65.83;;
9322;SDS011;4700;48.822;9.270;2023-04-15T00:35:20;100.00;;;65.33;;
9322;SDS011;4700;48.822;9.270;2023-04-15T00:38:26;104.80;;;64.23;;
9322;SDS011;4700;48.822;9.270;2023-04-15T00:41:15;100.30;;;66.60;;
9322;SDS011;4700;48.822;9.270;2023-04-15T00:44:12;97.23;;;65.53;;
9322;SDS011;4700;48.822;9.270;2023-04-15T00:47:04;105.63;;;66.63;;
9322;SDS011;4700;48.822;9.270;2023-04-15T00:49:51;106.37;;;65.13;;
9322;SDS011;4700;48.822;9.270;2023-04-15T00:52:38;110.93;;;66.90;;
9322;SDS011;4700;48.822;9.270;2023-04-15T00:55:28;93.13;;;61.63;;
9322;SDS011;4700;48.822;9.270;2023-04-15T00:58:19;107.93;;;66.57;;
9322;SDS011;4700;48.822;9.270;2023-04-15T01:01:15;103.50;;;67.13;;
9322;SDS011;4700;48.822;9.270;2023-04-15T01:04:04;101.40;;;64.10;;
9322;SDS011;4700;48.822;9.270;2023-04-15T01:06:55;96.40;;;64.80;;
9322;SDS011;4700;48.822;9.270;2023-04-15T01:09:41;102.27;;;65.43;;
9322;SDS011;4700;48.822;9.270;2023-04-15T01:12:31;94.23;;;63.07;;
9322;SDS011;4700;48.822;9.270;2023-04-15T01:15:18;99.70;;;64.73;;
9322;SDS011;4700;48.822;9.270;2023-04-15T01:18:09;99.23;;;64.20;;
9322;SDS011;4700;48.822;9.270;2023-04-15T01:20:56;103.68;;;67.00;;
9322;SDS011;4700;48.822;9.270;2023-04-15T01:23:44;104.90;;;65.77;;
9322;SDS011;4700;48.822;9.270;2023-04-15T01:26:33;105.03;;;66.07;;
9322;SDS011;4700;48.822;9.270;2023-04-15T01:29:24;110.37;;;66.23;;
9322;SDS011;4700;48.822;9.270;2023-04-15T01:32:16;104.93;;;63.23;;
9322;SDS011;4700;48.822;9.270;2023-04-15T01:35:07;103.70;;;64.53;;
9322;SDS011;4700;48.822;9.270;2023-04-15T01:37:59;98.27;;;61.70;;
9322;SDS011;4700;48.822;9.270;2023-04-15T01:41:06;103.70;;;63.03;;
9322;SDS011;4700;48.822;9.270;2023-04-15T01:44:18;115.73;;;68.13;;
9322;SDS011;4700;48.822;9.270;2023-04-15T01:47:15;115.23;;;67.63;;
9322;SDS011;4700;48.822;9.270;2023-04-15T01:50:21;118.97;;;69.25;;
9322;SDS011;4700;48.822;9.270;2023-04-15T01:55:53;98.93;;;64.20;;
9322;SDS011;4700;48.822;9.270;2023-04-15T03:20:00;119.22;;;67.85;;
9322;SDS011;4700;48.822;9.270;2023-04-15T03:22:57;111.07;;;64.13;;
9322;SDS011;4700;48.822;9.270;2023-04-15T03:26:00;119.63;;;70.57;;
9322;SDS011;4700;48.822;9.270;2023-04-15T03:31:38;105.83;;;64.70;;
9322;SDS011;4700;48.822;9.270;2023-04-15T03:38:02;123.15;;;68.72;;
9322;SDS011;4700;48.822;9.270;2023-04-15T03:41:04;119.07;;;67.72;;
9322;SDS011;4700;48.822;9.270;2023-04-15T03:44:09;119.30;;;66.60;;
9322;SDS011;4700;48.822;9.270;2023-04-15T03:49:51;129.10;;;71.05;;
9322;SDS011;4700;48.822;9.270;2023-04-15T03:52:49;126.95;;;68.72;;
9322;SDS011;4700;48.822;9.270;2023-04-15T03:55:46;125.40;;;67.60;;
9322;SDS011;4700;48.822;9.270;2023-04-15T03:58:39;135.98;;;70.72;;
9322;SDS011;4700;48.822;9.270;2023-04-15T04:01:42;132.30;;;70.78;;
9322;SDS011;4700;48.822;9.270;2023-04-15T04:04:42;131.57;;;70.90;;
9322;SDS011;4700;48.822;9.270;2023-04-15T05:56:34;117.83;;;68.63;;
9322;SDS011;4700;48.822;9.270;2023-04-15T05:59:21;127.30;;;70.83;;
9322;SDS011;4700;48.822;9.270;2023-04-15T06:02:06;122.03;;;72.97;;
9322;SDS011;4700;48.822;9.270;2023-04-15T06:04:53;123.70;;;71.33;;
9322;SDS011;4700;48.822;9.270;2023-04-15T06:07:38;120.00;;;71.13;;
9322;SDS011;4700;48.822;9.270;2023-04-15T06:10:26;125.90;;;72.30;;
9322;SDS011;4700;48.822;9.270;2023-04-15T06:13:13;113.50;;;70.23;;
9322;SDS011;4700;48.822;9.270;2023-04-15T06:15:59;124.87;;;76.37;;
9322;SDS011;4700;48.822;9.270;2023-04-15T06:18:45;140.57;;;77.23;;
9322;SDS011;4700;48.822;9.270;2023-04-15T06:21:30;112.43;;;73.07;;
9322;SDS011;4700;48.822;9.270;2023-04-15T06:24:16;116.97;;;75.10;;
9322;SDS011;4700;48.822;9.270;2023-04-15T06:27:02;115.90;;;73.07;;
9322;SDS011;4700;48.822;9.270;2023-04-15T06:29:49;120.07;;;74.57;;
9322;SDS011;4700;48.822;9.270;2023-04-15T06:32:35;191.70;;;101.53;;
9322;SDS011;4700;48.822;9.270;2023-04-15T06:35:21;105.23;;;69.90;;
9322;SDS011;4700;48.822;9.270;2023-04-15T06:38:07;122.37;;;81.37;;
9322;SDS011;4700;48.822;9.270;2023-04-15T06:40:52;134.33;;;88.80;;
9322;SDS011;4700;48.822;9.270;2023-04-15T06:43:38;122.47;;;90.60;;
9322;SDS011;4700;48.822;9.270;2023-04-15T06:46:25;89.27;;;78.70;;
9322;SDS011;4700;48.822;9.270;2023-04-15T06:49:11;83.80;;;74.17;;
9322;SDS011;4700;48.822;9.270;2023-04-15T06:51:57;84.27;;;74.73;;
9322;SDS011;4700;48.822;9.270;2023-04-15T06:54:43;80.67;;;69.10;;
9322;SDS011;4700;48.822;9.270;2023-04-15T06:57:29;79.20;;;70.27;;
9322;SDS011;4700;48.822;9.270;2023-04-15T07:00:15;92.17;;;71.90;;
9322;SDS011;4700;48.822;9.270;2023-04-15T07:03:03;73.07;;;65.27;;
9322;SDS011;4700;48.822;9.270;2023-04-15T07:05:48;84.03;;;75.63;;
9322;SDS011;4700;48.822;9.270;2023-04-15T07:08:34;97.27;;;77.67;;
9322;SDS011;4700;48.822;9.270;2023-04-15T07:11:20;84.67;;;75.87;;
9322;SDS011;4700;48.822;9.270;2023-04-15T07:14:06;74.67;;;67.17;;
9322;SDS011;4700;48.822;9.270;2023-04-15T07:16:51;77.30;;;69.27;;
9322;SDS011;4700;48.822;9.270;2023-04-15T07:19:38;84.93;;;75.90;;
9322;SDS011;4700;48.822;9.270;2023-04-15T07:22:24;82.87;;;73.47;;
9322;SDS011;4700;48.822;9.270;2023-04-15T07:25:10;79.43;;;70.80;;
9322;SDS011;4700;48.822;9.270;2023-04-15T07:27:56;80.50;;;71.87;;
9322;SDS011;4700;48.822;9.270;2023-04-15T07:30:41;77.30;;;68.83;;
9322;SDS011;4700;48.822;9.270;2023-04-15T07:33:27;93.63;;;81.80;;
9322;SDS011;4700;48.822;9.270;2023-04-15T07:36:14;92.20;;;82.50;;
9322;SDS011;4700;48.822;9.270;2023-04-15T07:39:01;96.87;;;87.47;;
9322;SDS011;4700;48.822;9.270;2023-04-15T07:41:47;101.03;;;91.30;;
9322;SDS011;4700;48.822;9.270;2023-04-15T07:44:33;111.10;;;100.47;;
9322;SDS011;4700;48.822;9.270;2023-04-15T07:47:18;113.50;;;103.20;;
9322;SDS011;4700;48.822;9.270;2023-04-15T07:50:05;123.00;;;112.70;;
9322;SDS011;4700;48.822;9.270;2023-04-15T07:52:53;119.47;;;109.87;;
9322;SDS011;4700;48.822;9.270;2023-04-15T07:55:38;97.00;;;89.90;;
9322;SDS011;4700;48.822;9.270;2023-04-15T07:58:24;109.30;;;102.47;;
9322;SDS011;4700;48.822;9.270;2023-04-15T08:01:10;100.80;;;94.50;;
9322;SDS011;4700;48.822;9.270;2023-04-15T08:03:55;83.80;;;78.17;;
9322;SDS011;4700;48.822;9.270;2023-04-15T08:06:41;78.07;;;73.37;;
9322;SDS011;4700;48.822;9.270;2023-04-15T08:09:28;73.37;;;68.80;;
9322;SDS011;4700;48.822;9.270;2023-04-15T08:12:14;101.13;;;95.33;;
9322;SDS011;4700;48.822;9.270;2023-04-15T08:15:00;138.17;;;129.13;;
9322;SDS011;4700;48.822;9.270;2023-04-15T08:17:46;140.37;;;132.17;;
9322;SDS011;4700;48.822;9.270;2023-04-15T08:20:31;100.10;;;94.97;;
9322;SDS011;4700;48.822;9.270;2023-04-15T08:23:17;69.37;;;65.90;;
9322;SDS011;4700;48.822;9.270;2023-04-15T08:26:07;47.23;;;44.37;;
9322;SDS011;4700;48.822;9.270;2023-04-15T08:28:53;36.77;;;35.00;;
9322;SDS011;4700;48.822;9.270;2023-04-15T08:31:39;28.03;;;26.37;;
9322;SDS011;4700;48.822;9.270;2023-04-15T08:34:24;23.70;;;22.30;;
9322;SDS011;4700;48.822;9.270;2023-04-15T08:37:10;27.17;;;25.33;;
9322;SDS011;4700;48.822;9.270;2023-04-15T08:39:56;18.70;;;17.27;;
9322;SDS011;4700;48.822;9.270;2023-04-15T08:42:44;24.57;;;23.07;;
9322;SDS011;4700;48.822;9.270;2023-04-15T08:45:32;23.50;;;21.67;;
9322;SDS011;4700;48.822;9.270;2023-04-15T08:48:19;26.83;;;25.10;;
9322;SDS011;4700;48.822;9.270;2023-04-15T08:51:07;34.73;;;32.17;;
9322;SDS011;4700;48.822;9.270;2023-04-15T08:53:54;24.67;;;23.17;;
9322;SDS011;4700;48.822;9.270;2023-04-15T08:56:40;33.17;;;30.43;;
9322;SDS011;4700;48.822;9.270;2023-04-15T08:59:28;34.93;;;25.23;;
9322;SDS011;4700;48.822;9.270;2023-04-15T09:02:14;21.37;;;20.17;;
9322;SDS011;4700;48.822;9.270;2023-04-15T09:05:01;26.17;;;24.67;;
9322;SDS011;4700;48.822;9.270;2023-04-15T09:07:49;22.97;;;21.50;;
9322;SDS011;4700;48.822;9.270;2023-04-15T09:10:35;27.30;;;25.70;;
9322;SDS011;4700;48.822;9.270;2023-04-15T09:13:21;20.87;;;19.47;;
9322;SDS011;4700;48.822;9.270;2023-04-15T09:16:08;30.60;;;28.53;;
9322;SDS011;4700;48.822;9.270;2023-04-15T09:18:54;22.10;;;20.53;;
9322;SDS011;4700;48.822;9.270;2023-04-15T09:21:40;30.23;;;27.70;;
9322;SDS011;4700;48.822;9.270;2023-04-15T09:24:32;21.77;;;20.07;;
9322;SDS011;4700;48.822;9.270;2023-04-15T09:27:21;20.10;;;18.77;;
9322;SDS011;4700;48.822;9.270;2023-04-15T09:30:07;27.47;;;25.30;;
9322;SDS011;4700;48.822;9.270;2023-04-15T09:32:56;33.80;;;31.40;;
9322;SDS011;4700;48.822;9.270;2023-04-15T09:35:55;34.47;;;21.43;;
9322;SDS011;4700;48.822;9.270;2023-04-15T09:38:48;18.77;;;17.50;;
9322;SDS011;4700;48.822;9.270;2023-04-15T09:41:39;26.63;;;24.63;;
9322;SDS011;4700;48.822;9.270;2023-04-15T09:44:26;19.73;;;18.63;;
9322;SDS011;4700;48.822;9.270;2023-04-15T09:47:25;23.43;;;21.70;;
9322;SDS011;4700;48.822;9.270;2023-04-15T09:50:13;26.37;;;24.40;;
9322;SDS011;4700;48.822;9.270;2023-04-15T09:52:59;24.53;;;22.77;;
9322;SDS011;4700;48.822;9.270;2023-04-15T09:55:51;21.97;;;20.73;;
9322;SDS011;4700;48.822;9.270;2023-04-15T09:58:38;28.40;;;25.93;;
9322;SDS011;4700;48.822;9.270;2023-04-15T10:01:25;22.53;;;19.40;;
9322;SDS011;4700;48.822;9.270;2023-04-15T10:04:11;31.70;;;29.40;;
9322;SDS011;4700;48.822;9.270;2023-04-15T10:06:58;18.27;;;17.07;;
9322;SDS011;4700;48.822;9.270;2023-04-15T10:09:46;21.23;;;20.20;;
9322;SDS011;4700;48.822;9.270;2023-04-15T10:12:32;25.97;;;24.17;;
9322;SDS011;4700;48.822;9.270;2023-04-15T10:15:20;24.43;;;22.73;;
9322;SDS011;4700;48.822;9.270;2023-04-15T10:18:06;24.90;;;23.27;;
9322;SDS011;4700;48.822;9.270;2023-04-15T10:20:54;19.03;;;17.63;;
9322;SDS011;4700;48.822;9.270;2023-04-15T10:23:41;22.90;;;21.13;;
9322;SDS011;4700;48.822;9.270;2023-04-15T10:26:30;16.60;;;15.73;;
9322;SDS011;4700;48.822;9.270;2023-04-15T10:29:16;23.87;;;22.20;;
9322;SDS011;4700;48.822;9.270;2023-04-15T10:32:02;22.70;;;20.90;;
9322;SDS011;4700;48.822;9.270;2023-04-15T10:34:49;22.60;;;21.27;;
9322;SDS011;4700;48.822;9.270;2023-04-15T10:37:37;22.90;;;21.50;;
9322;SDS011;4700;48.822;9.270;2023-04-15T10:40:25;23.80;;;21.93;;
9322;SDS011;4700;48.822;9.270;2023-04-15T10:43:23;25.90;;;24.27;;
9322;SDS011;4700;48.822;9.270;2023-04-15T10:46:10;19.67;;;18.53;;
9322;SDS011;4700;48.822;9.270;2023-04-15T10:48:55;22.47;;;20.93;;
9322;SDS011;4700;48.822;9.270;2023-04-15T10:51:41;18.57;;;17.30;;
9322;SDS011;4700;48.822;9.270;2023-04-15T10:54:32;17.43;;;16.37;;
9322;SDS011;4700;48.822;9.270;2023-04-15T10:57:22;19.53;;;18.40;;
9322;SDS011;4700;48.822;9.270;2023-04-15T11:00:11;23.20;;;21.53;;
9322;SDS011;4700;48.822;9.270;2023-04-15T11:02:58;26.67;;;24.47;;
9322;SDS011;4700;48.822;9.270;2023-04-15T11:05:50;17.67;;;16.63;;
9322;SDS011;4700;48.822;9.270;2023-04-15T11:08:53;18.30;;;16.80;;
9322;SDS011;4700;48.822;9.270;2023-04-15T11:12:03;22.23;;;20.60;;
9322;SDS011;4700;48.822;9.270;2023-04-15T11:14:52;19.67;;;18.67;;
9322;SDS011;4700;48.822;9.270;2023-04-15T11:17:38;22.30;;;21.07;;
9322;SDS011;4700;48.822;9.270;2023-04-15T11:20:23;17.87;;;16.80;;
9322;SDS011;4700;48.822;9.270;2023-04-15T11:23:09;24.37;;;22.17;;
9322;SDS011;4700;48.822;9.270;2023-04-15T11:25:56;18.87;;;17.67;;
9322;SDS011;4700;48.822;9.270;2023-04-15T11:28:43;31.70;;;29.10;;
9322;SDS011;4700;48.822;9.270;2023-04-15T11:31:31;22.63;;;21.23;;
9322;SDS011;4700;48.822;9.270;2023-04-15T11:34:21;23.47;;;22.03;;
9322;SDS011;4700;48.822;9.270;2023-04-15T11:37:07;23.53;;;21.63;;
9322;SDS011;4700;48.822;9.270;2023-04-15T11:39:54;23.17;;;21.77;;
9322;SDS011;4700;48.822;9.270;2023-04-15T11:42:39;23.20;;;21.93;;
9322;SDS011;4700;48.822;9.270;2023-04-15T11:45:26;23.03;;;21.70;;
9322;SDS011;4700;48.822;9.270;2023-04-15T11:48:13;24.07;;;22.77;;
9322;SDS011;4700;48.822;9.270;2023-04-15T11:50:59;24.83;;;23.40;;
9322;SDS011;4700;48.822;9.270;2023-04-15T11:53:46;24.67;;;23.10;;
9322;SDS011;4700;48.822;9.270;2023-04-15T11:56:32;25.17;;;23.73;;
9322;SDS011;4700;48.822;9.270;2023-04-15T11:59:18;30.63;;;28.53;;
9322;SDS011;4700;48.822;9.270;2023-04-15T12:02:10;27.07;;;25.57;;
9322;SDS011;4700;48.822;9.270;2023-04-15T12:05:03;35.93;;;33.17;;
9322;SDS011;4700;48.822;9.270;2023-04-15T12:07:58;26.70;;;24.83;;
9322;SDS011;4700;48.822;9.270;2023-04-15T12:10:44;34.87;;;32.27;;
9322;SDS011;4700;48.822;9.270;2023-04-15T12:13:30;26.50;;;25.07;;
9322;SDS011;4700;48.822;9.270;2023-04-15T12:16:19;29.90;;;28.00;;
9322;SDS011;4700;48.822;9.270;2023-04-15T12:19:06;20.87;;;19.67;;
9322;SDS011;4700;48.822;9.270;2023-04-15T12:21:57;26.47;;;24.60;;
9322;SDS011;4700;48.822;9.270;2023-04-15T12:24:52;26.67;;;24.83;;
9322;SDS011;4700;48.822;9.270;2023-04-15T12:27:40;28.53;;;26.73;;
9322;SDS011;4700;48.822;9.270;2023-04-15T12:30:25;37.27;;;26.70;;
9322;SDS011;4700;48.822;9.270;2023-04-15T12:33:12;34.70;;;32.50;;
9322;SDS011;4700;48.822;9.270;2023-04-15T12:35:57;25.70;;;24.33;;
9322;SDS011;4700;48.822;9.270;2023-04-15T12:38:44;26.43;;;25.00;;
9322;SDS011;4700;48.822;9.270;2023-04-15T12:41:30;25.33;;;23.73;;
9322;SDS011;4700;48.822;9.270;2023-04-15T12:44:16;35.57;;;33.37;;
9322;SDS011;4700;48.822;9.270;2023-04-15T12:47:06;28.37;;;26.80;;
9322;SDS011;4700;48.822;9.270;2023-04-15T12:49:53;33.67;;;31.77;;
9322;SDS011;4700;48.822;9.270;2023-04-15T12:52:39;31.50;;;29.77;;
9322;SDS011;4700;48.822;9.270;2023-04-15T12:55:26;36.37;;;33.37;;
9322;SDS011;4700;48.822;9.270;2023-04-15T12:58:13;38.83;;;36.70;;
9322;SDS011;4700;48.822;9.270;2023-04-15T13:00:58;46.03;;;43.47;;
9322;SDS011;4700;48.822;9.270;2023-04-15T13:03:44;44.37;;;41.83;;
9322;SDS011;4700;48.822;9.270;2023-04-15T13:06:32;53.97;;;51.03;;
9322;SDS011;4700;48.822;9.270;2023-04-15T13:09:18;57.27;;;53.97;;
9322;SDS011;4700;48.822;9.270;2023-04-15T13:12:05;66.43;;;62.37;;
9322;SDS011;4700;48.822;9.270;2023-04-15T13:14:56;77.27;;;70.33;;
9322;SDS011;4700;48.822;9.270;2023-04-15T13:17:42;71.73;;;65.40;;
9322;SDS011;4700;48.822;9.270;2023-04-15T13:20:28;77.47;;;70.43;;
9322;SDS011;4700;48.822;9.270;2023-04-15T13:23:13;77.77;;;70.33;;
9322;SDS011;4700;48.822;9.270;2023-04-15T13:25:59;71.37;;;64.73;;
9322;SDS011;4700;48.822;9.270;2023-04-15T13:28:46;74.53;;;67.63;;
9322;SDS011;4700;48.822;9.270;2023-04-15T13:31:32;76.80;;;69.67;;
9322;SDS011;4700;48.822;9.270;2023-04-15T13:34:18;85.40;;;77.33;;
9322;SDS011;4700;48.822;9.270;2023-04-15T13:37:07;87.73;;;79.53;;
9322;SDS011;4700;48.822;9.270;2023-04-15T13:39:53;94.77;;;85.53;;
9322;SDS011;4700;48.822;9.270;2023-04-15T13:42:38;83.13;;;75.27;;
9322;SDS011;4700;48.822;9.270;2023-04-15T13:45:27;86.27;;;78.27;;
9322;SDS011;4700;48.822;9.270;2023-04-15T13:48:12;96.20;;;86.87;;
9322;SDS011;4700;48.822;9.270;2023-04-15T13:50:58;92.17;;;82.93;;
9322;SDS011;4700;48.822;9.270;2023-04-15T13:53:44;81.80;;;74.10;;
9322;SDS011;4700;48.822;9.270;2023-04-15T13:56:29;90.80;;;82.00;;
9322;SDS011;4700;48.822;9.270;2023-04-15T13:59:15;82.53;;;74.53;;
9322;SDS011;4700;48.822;9.270;2023-04-15T14:02:03;77.03;;;69.53;;
9322;SDS011;4700;48.822;9.270;2023-04-15T14:04:49;73.40;;;66.37;;
9322;SDS011;4700;48.822;9.270;2023-04-15T14:07:35;82.60;;;74.60;;
9322;SDS011;4700;48.822;9.270;2023-04-15T14:10:21;87.90;;;79.00;;
9322;SDS011;4700;48.822;9.270;2023-04-15T14:13:08;88.17;;;78.97;;
9322;SDS011;4700;48.822;9.270;2023-04-15T14:15:54;95.13;;;85.97;;
9322;SDS011;4700;48.822;9.270;2023-04-15T14:18:42;94.13;;;84.47;;
9322;SDS011;4700;48.822;9.270;2023-04-15T14:21:32;82.33;;;74.13;;
9322;SDS011;4700;48.822;9.270;2023-04-15T14:24:18;83.33;;;75.03;;
9322;SDS011;4700;48.822;9.270;2023-04-15T14:27:03;81.97;;;73.57;;
9322;SDS011;4700;48.822;9.270;2023-04-15T14:29:51;79.33;;;71.53;;
9322;SDS011;4700;48.822;9.270;2023-04-15T14:32:37;78.87;;;71.07;;
9322;SDS011;4700;48.822;9.270;2023-04-15T14:35:24;75.37;;;68.17;;
9322;SDS011;4700;48.822;9.270;2023-04-15T14:38:10;84.73;;;76.33;;
9322;SDS011;4700;48.822;9.270;2023-04-15T14:40:57;76.83;;;68.93;;
9322;SDS011;4700;48.822;9.270;2023-04-15T14:43:42;85.53;;;77.10;;
9322;SDS011;4700;48.822;9.270;2023-04-15T14:46:28;76.90;;;69.33;;
9322;SDS011;4700;48.822;9.270;2023-04-15T14:49:14;80.43;;;72.63;;
9322;SDS011;4700;48.822;9.270;2023-04-15T14:52:01;80.73;;;72.73;;
9322;SDS011;4700;48.822;9.270;2023-04-15T14:54:47;80.60;;;72.40;;
9322;SDS011;4700;48.822;9.270;2023-04-15T14:57:33;75.07;;;67.60;;
9322;SDS011;4700;48.822;9.270;2023-04-15T15:00:22;88.83;;;79.90;;
9322;SDS011;4700;48.822;9.270;2023-04-15T15:03:07;80.30;;;72.17;;
9322;SDS011;4700;48.822;9.270;2023-04-15T15:05:56;92.47;;;82.87;;
9322;SDS011;4700;48.822;9.270;2023-04-15T15:08:43;83.17;;;74.43;;
9322;SDS011;4700;48.822;9.270;2023-04-15T15:11:28;78.27;;;69.97;;
9322;SDS011;4700;48.822;9.270;2023-04-15T15:14:14;83.77;;;74.93;;
9322;SDS011;4700;48.822;9.270;2023-04-15T15:17:00;82.30;;;73.67;;
9322;SDS011;4700;48.822;9.270;2023-04-15T15:19:46;83.33;;;74.40;;
9322;SDS011;4700;48.822;9.270;2023-04-15T15:22:32;82.83;;;73.93;;
9322;SDS011;4700;48.822;9.270;2023-04-15T15:25:19;79.10;;;70.23;;
9322;SDS011;4700;48.822;9.270;2023-04-15T15:28:05;81.37;;;72.10;;
9322;SDS011;4700;48.822;9.270;2023-04-15T15:30:50;96.73;;;81.90;;
9322;SDS011;4700;48.822;9.270;2023-04-15T15:33:36;86.03;;;73.87;;
9322;SDS011;4700;48.822;9.270;2023-04-15T15:36:25;87.73;;;75.93;;
9322;SDS011;4700;48.822;9.270;2023-04-15T15:39:11;81.73;;;68.77;;
9322;SDS011;4700;48.822;9.270;2023-04-15T15:41:58;94.37;;;78.93;;
9322;SDS011;4700;48.822;9.270;2023-04-15T15:44:44;84.57;;;70.80;;
9322;SDS011;4700;48.822;9.270;2023-04-15T15:47:31;89.33;;;73.50;;
9322;SDS011;4700;48.822;9.270;2023-04-15T15:50:17;94.30;;;76.33;;
9322;SDS011;4700;48.822;9.270;2023-04-15T15:53:09;93.03;;;73.03;;
9322;SDS011;4700;48.822;9.270;2023-04-15T15:58:27;81.80;;;72.37;;
9322;SDS011;4700;48.822;9.270;2023-04-15T16:01:13;88.77;;;75.53;;
9322;SDS011;4700;48.822;9.270;2023-04-15T16:03:59;89.03;;;75.83;;
9322;SDS011;4700;48.822;9.270;2023-04-15T16:06:45;91.93;;;76.13;;
9322;SDS011;4700;48.822;9.270;2023-04-15T16:09:31;91.00;;;75.73;;
9322;SDS011;4700;48.822;9.270;2023-04-15T16:12:17;90.03;;;74.27;;
9322;SDS011;4700;48.822;9.270;2023-04-15T16:15:05;86.93;;;73.10;;
9322;SDS011;4700;48.822;9.270;2023-04-15T16:17:51;88.80;;;74.83;;
9322;SDS011;4700;48.822;9.270;2023-04-15T16:20:37;92.13;;;77.13;;
9322;SDS011;4700;48.822;9.270;2023-04-15T16:23:23;89.80;;;75.30;;
9322;SDS011;4700;48.822;9.270;2023-04-15T16:26:09;94.90;;;78.97;;
9322;SDS011;4700;48.822;9.270;2023-04-15T16:28:55;92.67;;;76.57;;
9322;SDS011;4700;48.822;9.270;2023-04-15T16:31:42;85.03;;;73.07;;
9322;SDS011;4700;48.822;9.270;2023-04-15T16:34:27;89.03;;;77.13;;
9322;SDS011;4700;48.822;9.270;2023-04-15T16:37:13;89.47;;;76.97;;
9322;SDS011;4700;48.822;9.270;2023-04-15T16:39:59;89.03;;;76.30;;
9322;SDS011;4700;48.822;9.270;2023-04-15T16:42:44;89.27;;;75.37;;
9322;SDS011;4700;48.822;9.270;2023-04-15T16:45:30;80.93;;;70.10;;
9322;SDS011;4700;48.822;9.270;2023-04-15T16:48:18;88.40;;;74.60;;
9322;SDS011;4700;48.822;9.270;2023-04-15T16:51:04;86.30;;;70.77;;
9322;SDS011;4700;48.822;9.270;2023-04-15T16:53:50;90.83;;;74.57;;
9322;SDS011;4700;48.822;9.270;2023-04-15T16:56:36;147.30;;;104.67;;
9322;SDS011;4700;48.822;9.270;2023-04-15T16:59:22;106.13;;;81.83;;
9322;SDS011;4700;48.822;9.270;2023-04-15T17:02:10;97.33;;;77.43;;
9322;SDS011;4700;48.822;9.270;2023-04-15T17:04:58;96.10;;;77.90;;
9322;SDS011;4700;48.822;9.270;2023-04-15T17:07:44;97.40;;;78.03;;
9322;SDS011;4700;48.822;9.270;2023-04-15T17:10:30;106.83;;;83.93;;
9322;SDS011;4700;48.822;9.270;2023-04-15T17:13:17;108.60;;;85.27;;
9322;SDS011;4700;48.822;9.270;2023-04-15T17:16:03;105.03;;;81.27;;
9322;SDS011;4700;48.822;9.270;2023-04-15T17:18:49;117.20;;;85.93;;
9322;SDS011;4700;48.822;9.270;2023-04-15T17:21:37;103.77;;;77.53;;
9322;SDS011;4700;48.822;9.270;2023-04-15T17:34:33;104.30;;;80.57;;
9322;SDS011;4700;48.822;9.270;2023-04-15T17:37:21;110.57;;;85.40;;
9322;SDS011;4700;48.822;9.270;2023-04-15T17:40:07;141.67;;;105.97;;
9322;SDS011;4700;48.822;9.270;2023-04-15T17:42:54;108.57;;;81.30;;
9322;SDS011;4700;48.822;9.270;2023-04-15T17:45:45;156.80;;;108.97;;
9322;SDS011;4700;48.822;9.270;2023-04-15T17:53:52;145.07;;;97.03;;
9322;SDS011;4700;48.822;9.270;2023-04-15T18:12:09;104.00;;;75.37;;
9322;SDS011;4700;48.822;9.270;2023-04-15T18:14:58;115.97;;;76.47;;
9322;SDS011;4700;48.822;9.270;2023-04-15T18:20:16;120.33;;;79.33;;
9322;SDS011;4700;48.822;9.270;2023-04-15T18:23:02;120.20;;;78.53;;
9322;SDS011;4700;48.822;9.270;2023-04-15T18:25:49;119.03;;;75.97;;
9322;SDS011;4700;48.822;9.270;2023-04-15T18:28:37;120.03;;;78.17;;
9322;SDS011;4700;48.822;9.270;2023-04-15T18:31:25;118.30;;;75.77;;
9322;SDS011;4700;48.822;9.270;2023-04-15T18:34:11;125.63;;;88.70;;
9322;SDS011;4700;48.822;9.270;2023-04-15T18:39:28;108.30;;;75.90;;
9322;SDS011;4700;48.822;9.270;2023-04-15T18:42:15;130.23;;;79.13;;
9322;SDS011;4700;48.822;9.270;2023-04-15T18:45:04;109.03;;;73.57;;
9322;SDS011;4700;48.822;9.270;2023-04-15T18:47:51;119.70;;;76.70;;
9322;SDS011;4700;48.822;9.270;2023-04-15T18:50:38;112.50;;;75.10;;
9322;SDS011;4700;48.822;9.270;2023-04-15T18:53:24;116.40;;;74.63;;
9322;SDS011;4700;48.822;9.270;2023-04-15T18:56:11;112.70;;;73.30;;
9322;SDS011;4700;48.822;9.270;2023-04-15T19:09:08;110.50;;;76.37;;
9322;SDS011;4700;48.822;9.270;2023-04-15T19:11:55;124.10;;;81.07;;
9322;SDS011;4700;48.822;9.270;2023-04-15T19:14:41;115.00;;;73.73;;
9322;SDS011;4700;48.822;9.270;2023-04-15T19:17:27;115.53;;;75.63;;
9322;SDS011;4700;48.822;9.270;2023-04-15T19:20:19;121.63;;;80.03;;
9322;SDS011;4700;48.822;9.270;2023-04-15T19:23:05;195.30;;;111.13;;
9322;SDS011;4700;48.822;9.270;2023-04-15T19:25:53;130.13;;;78.67;;
9322;SDS011;4700;48.822;9.270;2023-04-15T19:28:41;128.50;;;77.17;;
9322;SDS011;4700;48.822;9.270;2023-04-15T19:31:27;114.10;;;75.60;;
9322;SDS011;4700;48.822;9.270;2023-04-15T19:34:03;114.73;;;76.70;;
9322;SDS011;4700;48.822;9.270;2023-04-15T19:36:35;113.00;;;77.50;;
9322;SDS011;4700;48.822;9.270;2023-04-15T19:39:21;117.37;;;75.43;;
9322;SDS011;4700;48.822;9.270;2023-04-15T19:44:51;117.87;;;79.53;;
9322;SDS011;4700;48.822;9.270;2023-04-15T19:47:39;116.23;;;76.93;;
9322;SDS011;4700;48.822;9.270;2023-04-15T19:50:24;120.40;;;79.70;;
9322;SDS011;4700;48.822;9.270;2023-04-15T20:03:29;131.37;;;83.07;;
9322;SDS011;4700;48.822;9.270;2023-04-15T20:26:53;125.47;;;80.93;;
9322;SDS011;4700;48.822;9.270;2023-04-15T23:12:58;144.73;;;87.83;;
9322;SDS011;4700;48.822;9.270;2023-04-15T23:16:28;153.07;;;90.33;;
9322;SDS011;4700;48.822;9.270;2023-04-15T23:22:15;152.73;;;95.30;;
